NCAR-RAP Real-Time Weather Data

Output produced by METARs form (05 December 2019  16:01 UTC)
found at http://weather.rap.ucar.edu/surface/
 
 
ROAH 051530Z 06014KT 9999 -RA FEW020 SCT050 OVC100 17/15 Q1023 RMK 1CU020 3SC050 8AS100 A3022
 
RODN 051556Z AUTO 05014KT 10SM CLR 16/14 A3021 RMK AO2 DZE16RAB16E26DZB26E53 SLP237 P0000 T01620138 $
 
ROIG 051100Z 05019KT 6000 -SHRA FEW008 BKN014 BKN026 18/18 Q1022
 
ROMY 051100Z 04014KT 9999 -RA SCT018 BKN080 19/17 Q1022